Time;durP1;ratioP1;P1;durP2;ratioP2;P2;SDS_P1;SDS_P2;PMS_P1;PMS_P2;Temp;Humidity;BMP_temperature;BMP_pressure;BME280_temperature;BME280_humidity;BME280_pressure;Samples;Min_cycle;Max_cycle;Signal;HPM_P1;HPM_P2
2022/09/13 00:00:07;;;;;;;2.80;2.60;;;23.60;60.10;24.80;100188.00;;;;5066339;28;20174;-41
2022/09/13 00:02:33;;;;;;;2.80;2.60;;;23.50;60.00;24.80;100248.00;;;;5066178;28;20247;-42
2022/09/13 00:04:59;;;;;;;3.03;2.80;;;23.60;60.20;24.80;100259.00;;;;5066846;28;20622;-42
2022/09/13 00:07:25;;;;;;;2.97;2.77;;;23.60;60.20;24.80;100260.00;;;;5065927;28;20201;-43
2022/09/13 00:09:50;;;;;;;2.70;2.50;;;23.50;60.10;24.80;100267.00;;;;5065943;28;20292;-42
2022/09/13 00:12:16;;;;;;;2.90;2.70;;;23.50;60.10;24.80;100274.00;;;;5066145;28;20228;-41
2022/09/13 00:14:42;;;;;;;2.80;2.60;;;23.50;60.10;24.80;100283.00;;;;5081493;28;20639;-41
2022/09/13 00:17:07;;;;;;;2.90;2.70;;;23.50;60.10;24.80;100269.00;;;;5065420;28;20178;-42
2022/09/13 00:19:33;;;;;;;3.17;2.97;;;23.50;60.10;24.70;100245.00;;;;5066208;28;20450;-42
2022/09/13 00:21:59;;;;;;;2.77;2.57;;;23.50;60.10;24.70;100245.00;;;;5065950;28;20265;-42
2022/09/13 00:24:26;;;;;;;3.07;2.87;;;23.50;60.10;24.70;100245.00;;;;5066426;28;20263;-42
2022/09/13 00:26:51;;;;;;;3.07;2.87;;;23.50;60.10;24.70;100228.00;;;;5066126;28;20622;-42
2022/09/13 00:29:17;;;;;;;2.90;2.70;;;23.50;60.10;24.70;100221.00;;;;5073394;28;20173;-43
2022/09/13 00:31:43;;;;;;;2.77;2.57;;;23.50;60.10;24.70;100218.00;;;;5085349;28;20205;-43
2022/09/13 00:34:09;;;;;;;2.90;2.70;;;23.40;60.00;24.70;100216.00;;;;5073483;28;20170;-41
2022/09/13 00:36:34;;;;;;;2.90;2.70;;;23.50;60.10;24.70;100217.00;;;;5069437;28;20215;-42
2022/09/13 00:39:00;;;;;;;2.87;2.67;;;23.40;59.90;24.70;100214.00;;;;5069292;28;20177;-41
2022/09/13 00:41:26;;;;;;;2.87;2.67;;;23.40;59.90;24.70;100216.00;;;;5069276;28;20193;-42
2022/09/13 00:44:00;;;;;;;2.90;2.70;;;23.40;59.90;24.70;100237.00;;;;5069415;28;20694;-42
2022/09/13 00:46:45;;;;;;;2.90;2.70;;;23.40;59.90;24.60;100231.00;;;;5069649;28;20317;-42
2022/09/13 00:49:19;;;;;;;2.90;2.70;;;23.40;59.90;24.60;100228.00;;;;5067870;28;20170;-42
2022/09/13 00:51:51;;;;;;;2.80;2.60;;;23.40;59.90;24.60;100231.00;;;;5069131;28;20200;-42
2022/09/13 00:54:17;;;;;;;2.97;2.77;;;23.40;59.90;24.60;100231.00;;;;5053074;28;20158;-41
2022/09/13 00:56:47;;;;;;;2.67;2.50;;;23.40;59.90;24.60;100234.00;;;;5067885;28;20162;-42
2022/09/13 00:59:16;;;;;;;2.80;2.60;;;23.40;59.90;24.60;100237.00;;;;5051875;28;20268;-42
2022/09/13 01:01:53;;;;;;;2.97;2.70;;;23.40;59.90;24.60;100239.00;;;;5051384;28;20197;-41
2022/09/13 01:04:19;;;;;;;2.80;2.60;;;23.40;60.00;24.50;100230.00;;;;5068160;28;20373;-41
2022/09/13 01:06:45;;;;;;;2.90;2.70;;;23.40;59.90;24.50;100235.00;;;;5067799;28;20170;-41
2022/09/13 01:09:11;;;;;;;3.00;2.80;;;23.30;59.80;24.50;100234.00;;;;5067297;28;20182;-41
2022/09/13 01:11:54;;;;;;;2.93;2.73;;;23.40;59.90;24.50;100228.00;;;;5051056;28;20304;-43
2022/09/13 01:14:20;;;;;;;2.73;2.53;;;23.30;59.80;24.50;100241.00;;;;5068705;28;20253;-42
2022/09/13 01:16:45;;;;;;;2.90;2.70;;;23.30;59.80;24.50;100241.00;;;;5067583;28;20177;-41
2022/09/13 01:19:11;;;;;;;2.90;2.70;;;23.30;59.80;24.50;100237.00;;;;5068754;28;20374;-41
2022/09/13 01:22:20;;;;;;;3.00;2.80;;;23.30;59.80;24.50;100232.00;;;;5068589;28;20189;-41
2022/09/13 01:25:27;;;;;;;3.00;2.80;;;23.30;59.90;24.50;100182.00;;;;5080006;28;20276;-42
2022/09/13 01:28:52;;;;;;;3.20;2.90;;;23.30;59.80;24.40;100237.00;;;;5077274;28;20202;-41
2022/09/13 01:31:34;;;;;;;2.87;2.50;;;23.30;59.80;24.40;100246.00;;;;5079532;28;20452;-43
2022/09/13 01:34:38;;;;;;;2.90;2.70;;;23.30;59.80;24.40;100236.00;;;;5058374;28;20158;-42
2022/09/13 01:37:58;;;;;;;3.03;2.83;;;23.30;59.80;24.40;100223.00;;;;5067907;28;20149;-42
2022/09/13 01:40:52;;;;;;;3.20;2.90;;;23.20;59.80;24.30;100230.00;;;;5017523;28;20243;-42
2022/09/13 01:43:55;;;;;;;3.30;3.00;;;23.30;59.80;24.30;100230.00;;;;5006108;28;20164;-42
2022/09/13 01:46:28;;;;;;;2.80;2.60;;;23.20;59.80;24.30;100223.00;;;;5026039;28;20226;-42
2022/09/13 01:49:40;;;;;;;2.90;2.70;;;23.20;59.80;24.30;100220.00;;;;5067974;28;20180;-41
2022/09/13 01:52:19;;;;;;;2.80;2.60;;;23.20;59.80;24.20;100220.00;;;;5086157;28;20217;-41
2022/09/13 01:55:00;;;;;;;2.90;2.70;;;23.20;59.80;24.30;100208.00;;;;5070142;28;20180;-42
2022/09/13 01:58:06;;;;;;;2.90;2.70;;;23.20;59.80;24.20;100217.00;;;;5051132;28;20157;-42
2022/09/13 02:00:38;;;;;;;2.73;2.53;;;23.20;59.80;24.20;100204.00;;;;5066772;28;20169;-41
2022/09/13 02:03:13;;;;;;;2.73;2.53;;;23.20;59.80;24.20;100212.00;;;;5050934;28;20158;-42
2022/09/13 02:05:50;;;;;;;3.07;2.80;;;23.20;59.80;24.20;100223.00;;;;5050609;28;20226;-40
2022/09/13 02:08:24;;;;;;;3.13;2.93;;;23.20;59.80;24.20;100207.00;;;;5051039;28;20593;-42
2022/09/13 02:11:05;;;;;;;2.90;2.70;;;23.20;59.80;24.20;100210.00;;;;5051289;28;20209;-44
2022/09/13 02:13:35;;;;;;;3.07;2.87;;;23.20;59.80;24.20;100202.00;;;;5051709;28;20712;-41
2022/09/13 02:16:08;;;;;;;3.00;2.80;;;23.20;59.80;24.20;100210.00;;;;5049956;28;20146;-42
2022/09/13 02:18:38;;;;;;;2.90;2.70;;;23.20;59.80;24.20;100193.00;;;;5067685;28;20180;-42
2022/09/13 02:21:38;;;;;;;2.73;2.53;;;23.10;59.70;24.20;100207.00;;;;5050538;28;20194;-42
2022/09/13 02:24:09;;;;;;;2.90;2.70;;;23.20;59.80;24.20;100202.00;;;;5066832;28;20177;-42
2022/09/13 02:26:37;;;;;;;2.77;2.57;;;23.10;59.70;24.20;100204.00;;;;5050084;28;20158;-42
2022/09/13 02:29:07;;;;;;;2.90;2.70;;;23.10;59.70;24.10;100208.00;;;;5066062;28;20245;-42
2022/09/13 02:31:41;;;;;;;3.00;2.80;;;23.10;59.70;24.10;100211.00;;;;5050081;28;20649;-43
2022/09/13 02:34:14;;;;;;;2.87;2.67;;;23.10;59.70;24.10;100215.00;;;;5050485;28;20363;-43
2022/09/13 02:36:40;;;;;;;2.90;2.70;;;23.10;59.70;24.10;100207.00;;;;5066987;28;20662;-41
2022/09/13 02:39:14;;;;;;;2.80;2.60;;;23.10;59.70;24.10;100207.00;;;;5065999;28;20253;-41
2022/09/13 02:41:57;;;;;;;3.17;2.97;;;23.10;59.70;24.10;100199.00;;;;5065790;28;20190;-42
2022/09/13 02:44:39;;;;;;;3.00;2.80;;;23.10;59.70;24.10;100187.00;;;;5067375;28;20161;-41
2022/09/13 02:47:51;;;;;;;2.80;2.60;;;23.10;59.70;24.10;100200.00;;;;5050822;28;20165;-41
2022/09/13 02:50:48;;;;;;;2.80;2.60;;;23.10;59.70;24.10;100198.00;;;;5066817;28;20186;-40
2022/09/13 02:53:41;;;;;;;2.70;2.50;;;23.10;59.70;24.00;100188.00;;;;5066809;28;20158;-41
2022/09/13 02:56:39;;;;;;;2.90;2.70;;;23.00;59.60;24.00;100202.00;;;;5050055;28;20158;-41
2022/09/13 02:59:16;;;;;;;2.83;2.63;;;23.00;59.60;24.00;100213.00;;;;5050423;28;20165;-42
2022/09/13 03:01:46;;;;;;;3.30;3.00;;;23.00;59.60;24.00;100193.00;;;;5047179;28;20209;-41
2022/09/13 03:04:12;;;;;;;2.80;2.60;;;23.00;59.60;24.00;100209.00;;;;5064150;28;20166;-42
2022/09/13 03:06:39;;;;;;;2.80;2.60;;;23.00;59.60;24.00;100209.00;;;;5064301;28;20173;-41
2022/09/13 03:09:05;;;;;;;3.00;2.80;;;23.00;59.60;24.00;100202.00;;;;5065083;28;20162;-42
2022/09/13 03:12:03;;;;;;;2.80;2.60;;;23.00;59.60;24.00;100213.00;;;;5064824;28;20693;-42
2022/09/13 03:14:34;;;;;;;2.80;2.60;;;23.00;59.60;24.00;100213.00;;;;5065805;28;20227;-41
2022/09/13 03:17:44;;;;;;;2.80;2.60;;;23.00;59.60;24.00;100210.00;;;;5070607;28;20162;-41
2022/09/13 03:20:24;;;;;;;2.90;2.70;;;23.00;59.70;23.90;100211.00;;;;5038867;28;20185;-41
2022/09/13 03:23:12;;;;;;;2.87;2.67;;;23.00;59.70;23.90;100222.00;;;;5068190;28;20212;-42
2022/09/13 03:25:51;;;;;;;2.80;2.60;;;23.00;59.60;23.90;100227.00;;;;5070002;28;20172;-41
2022/09/13 03:28:53;;;;;;;2.50;2.40;;;23.00;59.70;23.90;100222.00;;;;5068553;28;20180;-43
2022/09/13 03:31:58;;;;;;;2.87;2.67;;;22.90;59.60;23.90;100211.00;;;;5064301;28;20223;-42
2022/09/13 03:35:17;;;;;;;2.97;2.77;;;22.90;59.70;23.90;100201.00;;;;5046513;28;20199;-43
2022/09/13 03:38:17;;;;;;;2.73;2.53;;;22.90;59.60;23.90;100194.00;;;;5065358;28;20546;-42
2022/09/13 03:40:50;;;;;;;2.90;2.70;;;22.90;59.60;23.80;100202.00;;;;5066126;28;20162;-41
2022/09/13 03:43:24;;;;;;;2.70;2.50;;;22.90;59.70;23.60;100187.00;;;;5065049;28;20158;-42
2022/09/13 03:45:58;;;;;;;2.67;2.47;;;22.90;59.60;23.80;100179.00;;;;5064730;28;20288;-41
2022/09/13 03:48:24;;;;;;;2.63;2.43;;;22.90;59.70;23.80;100183.00;;;;5065181;28;20241;-41
2022/09/13 03:50:50;;;;;;;2.80;2.60;;;22.90;59.70;23.80;100161.00;;;;5065629;28;20205;-42
2022/09/13 03:53:22;;;;;;;2.80;2.60;;;22.90;59.70;23.80;100174.00;;;;5065591;28;20252;-42
2022/09/13 03:55:48;;;;;;;2.70;2.50;;;22.90;59.70;23.80;100176.00;;;;5065404;28;20219;-42
2022/09/13 03:58:17;;;;;;;2.83;2.63;;;22.90;59.70;23.80;100167.00;;;;5066080;28;20569;-42
2022/09/13 04:00:43;;;;;;;2.80;2.60;;;22.90;59.80;23.80;100163.00;;;;5066781;28;20178;-43
2022/09/13 04:03:09;;;;;;;3.00;2.80;;;22.90;59.80;23.80;100177.00;;;;5067760;28;20181;-43
2022/09/13 04:05:35;;;;;;;2.80;2.60;;;22.90;59.80;23.80;100178.00;;;;5071075;28;20650;-41
2022/09/13 04:08:03;;;;;;;2.80;2.60;;;22.90;59.80;23.80;100176.00;;;;5070510;28;20169;-41
2022/09/13 04:10:30;;;;;;;2.90;2.70;;;22.80;59.70;23.80;100176.00;;;;5070900;28;20908;-41
2022/09/13 04:12:57;;;;;;;2.90;2.70;;;22.80;59.70;23.80;100176.00;;;;5071189;28;20631;-41
2022/09/13 04:15:23;;;;;;;2.80;2.60;;;22.90;59.80;23.80;100169.00;;;;5070744;28;20170;-41
2022/09/13 04:17:49;;;;;;;2.93;2.73;;;22.80;59.70;23.80;100177.00;;;;5070254;28;20327;-42
2022/09/13 04:20:15;;;;;;;2.77;2.57;;;22.80;59.80;23.80;100177.00;;;;5069326;28;20177;-42
2022/09/13 04:22:41;;;;;;;2.80;2.60;;;22.80;59.80;23.70;100175.00;;;;5070495;28;20193;-42
2022/09/13 04:25:07;;;;;;;3.10;2.90;;;22.80;59.80;23.70;100173.00;;;;5070753;28;20166;-42
2022/09/13 04:27:34;;;;;;;2.80;2.60;;;22.80;59.80;23.70;100178.00;;;;5067190;28;20535;-43
2022/09/13 04:30:01;;;;;;;2.70;2.50;;;22.80;59.80;23.70;100177.00;;;;5069142;28;20562;-44
2022/09/13 04:32:27;;;;;;;2.70;2.50;;;22.80;59.90;23.70;100175.00;;;;5069887;28;20272;-42
2022/09/13 04:34:53;;;;;;;2.80;2.60;;;22.80;59.90;23.70;100174.00;;;;5069122;28;20551;-43
2022/09/13 04:37:19;;;;;;;2.90;2.70;;;22.80;59.90;23.70;100167.00;;;;5069952;28;20174;-43
2022/09/13 04:39:45;;;;;;;2.80;2.60;;;22.80;59.90;23.70;100173.00;;;;5069806;28;20181;-40
2022/09/13 04:42:11;;;;;;;3.20;2.70;;;22.80;60.00;23.70;100175.00;;;;5067516;28;20189;-42
2022/09/13 04:44:37;;;;;;;2.83;2.63;;;22.80;60.00;23.70;100170.00;;;;5069087;28;20244;-41
2022/09/13 04:47:03;;;;;;;2.90;2.70;;;22.80;60.00;23.70;100168.00;;;;5070323;28;20265;-42
2022/09/13 04:49:29;;;;;;;2.73;2.53;;;22.80;60.00;23.70;100172.00;;;;5068521;28;20170;-42
2022/09/13 04:51:55;;;;;;;2.80;2.60;;;22.80;60.10;23.70;100176.00;;;;5069958;28;20198;-42
2022/09/13 04:54:21;;;;;;;2.70;2.50;;;22.80;60.00;23.70;100178.00;;;;5070186;28;20223;-43
2022/09/13 04:56:47;;;;;;;2.73;2.53;;;22.80;60.10;23.70;100176.00;;;;5071557;28;20174;-43
2022/09/13 04:59:13;;;;;;;2.77;2.57;;;22.70;60.00;23.60;100186.00;;;;5075490;28;20170;-42
2022/09/13 05:01:39;;;;;;;2.80;2.60;;;22.70;60.00;23.60;100178.00;;;;5069366;28;20584;-43
2022/09/13 05:04:08;;;;;;;2.80;2.60;;;22.70;60.80;23.60;100194.00;;;;5070096;28;20531;-41
2022/09/13 05:06:34;;;;;;;3.00;2.70;;;22.70;60.00;23.60;100202.00;;;;5068491;28;20162;-41
2022/09/13 05:08:59;;;;;;;3.00;2.80;;;22.70;60.00;23.60;100191.00;;;;5086293;28;20252;-42
2022/09/13 05:11:26;;;;;;;3.00;2.80;;;22.70;60.10;23.60;100198.00;;;;5087786;28;20205;-43
2022/09/13 05:13:55;;;;;;;2.90;2.70;;;22.70;60.10;23.60;100208.00;;;;5079526;28;20185;-43
2022/09/13 05:16:22;;;;;;;2.83;2.63;;;22.70;60.10;23.60;100207.00;;;;5068867;28;20174;-43
2022/09/13 05:18:48;;;;;;;2.93;2.60;;;22.70;60.10;23.60;100204.00;;;;5069768;28;20170;-41
2022/09/13 05:21:13;;;;;;;2.97;2.77;;;22.70;60.10;23.60;100199.00;;;;5072339;28;20205;-42
2022/09/13 05:23:39;;;;;;;3.30;2.60;;;22.70;60.20;23.60;100192.00;;;;5081575;28;20169;-41
2022/09/13 05:26:05;;;;;;;3.20;2.90;;;22.70;60.30;23.60;100191.00;;;;5072231;28;20158;-42
2022/09/13 05:28:33;;;;;;;3.00;2.80;;;22.70;60.20;23.60;100198.00;;;;5069000;28;20456;-42
2022/09/13 05:31:01;;;;;;;2.80;2.60;;;22.70;60.30;23.60;100199.00;;;;5069001;28;20213;-41
2022/09/13 05:33:31;;;;;;;3.23;2.80;;;22.60;60.30;23.60;100201.00;;;;5071556;28;20174;-42
2022/09/13 05:35:59;;;;;;;3.10;2.87;;;22.70;60.30;23.50;100205.00;;;;5072860;28;20165;-42
2022/09/13 05:38:26;;;;;;;3.10;2.80;;;22.70;60.40;23.50;100209.00;;;;5084505;28;20174;-42
2022/09/13 05:40:57;;;;;;;4.00;2.77;;;22.60;60.30;23.50;100209.00;;;;5051393;28;20213;-42
2022/09/13 05:43:29;;;;;;;3.93;2.90;;;22.60;60.30;23.50;100203.00;;;;5067747;28;20272;-42
2022/09/13 05:46:12;;;;;;;3.10;2.80;;;22.60;60.30;23.50;100194.00;;;;5067590;28;20182;-41
2022/09/13 05:48:39;;;;;;;4.57;3.07;;;22.60;60.30;23.50;100203.00;;;;5068528;28;20215;-42
2022/09/13 05:51:15;;;;;;;3.10;2.80;;;22.60;60.30;23.50;100194.00;;;;5070000;28;20221;-42
2022/09/13 05:53:44;;;;;;;3.77;3.10;;;22.60;60.30;23.50;100200.00;;;;5068953;28;20681;-40
2022/09/13 05:56:15;;;;;;;3.70;2.77;;;22.60;60.40;23.50;100198.00;;;;5068068;28;20646;-43
2022/09/13 05:58:43;;;;;;;4.87;3.20;;;22.60;60.40;23.50;100201.00;;;;5083676;28;20197;-42
2022/09/13 06:01:11;;;;;;;3.60;3.03;;;22.50;60.30;23.50;100200.00;;;;5050714;28;20658;-43
2022/09/13 06:03:38;;;;;;;6.60;3.20;;;22.60;60.50;23.50;100200.00;;;;5068576;28;20170;-42
2022/09/13 06:06:05;;;;;;;4.67;3.13;;;22.50;60.30;23.50;100144.00;;;;4894713;28;20205;-42
2022/09/13 06:08:33;;;;;;;4.50;2.90;;;22.60;60.50;23.40;100203.00;;;;5067336;28;20276;-41
2022/09/13 06:11:01;;;;;;;4.37;2.80;;;22.50;60.40;23.40;100202.00;;;;5067706;28;20612;-42
2022/09/13 06:13:28;;;;;;;4.90;3.20;;;22.50;60.50;23.40;100191.00;;;;5066314;28;20185;-42
2022/09/13 06:15:56;;;;;;;4.63;2.97;;;22.50;60.50;23.40;100201.00;;;;5083339;28;20612;-41
2022/09/13 06:18:24;;;;;;;4.43;3.07;;;22.50;60.50;23.20;100191.00;;;;5086503;28;20169;-42
2022/09/13 06:20:51;;;;;;;4.33;3.10;;;22.50;60.40;23.40;100200.00;;;;5103194;28;20196;-41
2022/09/13 06:23:18;;;;;;;4.87;3.13;;;22.50;60.50;23.40;100208.00;;;;5084937;28;20170;-41
2022/09/13 06:25:47;;;;;;;3.20;2.90;;;22.50;60.50;23.40;100207.00;;;;5065771;28;20542;-42
2022/09/13 06:28:14;;;;;;;3.20;2.80;;;22.50;60.50;23.40;100212.00;;;;5065607;28;20671;-41
2022/09/13 06:30:40;;;;;;;3.40;2.80;;;22.50;60.50;23.20;100210.00;;;;5066962;28;20193;-42
2022/09/13 06:33:06;;;;;;;4.17;2.70;;;22.50;60.70;23.40;100213.00;;;;5065967;28;20529;-42
2022/09/13 06:35:32;;;;;;;4.43;3.20;;;22.50;60.60;23.40;100208.00;;;;5067449;28;20228;-42
2022/09/13 06:37:58;;;;;;;4.93;2.63;;;22.50;60.70;23.40;100211.00;;;;5067781;28;20262;-41
2022/09/13 06:40:25;;;;;;;6.03;3.40;;;22.50;60.80;23.40;100209.00;;;;5066414;28;20190;-43
2022/09/13 06:42:51;;;;;;;7.83;2.93;;;22.50;61.00;23.40;100210.00;;;;5068297;28;20189;-41
2022/09/13 06:45:18;;;;;;;5.53;2.90;;;22.50;61.20;23.40;100209.00;;;;5068684;28;20472;-42
2022/09/13 06:47:45;;;;;;;4.10;2.90;;;22.50;61.50;23.40;100211.00;;;;5067436;28;20188;-41
2022/09/13 06:50:12;;;;;;;6.13;2.97;;;22.50;61.40;23.40;100212.00;;;;5067569;28;20194;-43
2022/09/13 06:52:38;;;;;;;5.23;3.00;;;22.40;61.50;23.40;100201.00;;;;5066567;28;20360;-42
2022/09/13 06:55:08;;;;;;;8.67;3.00;;;22.40;61.50;23.40;100203.00;;;;5066437;28;20303;-42
2022/09/13 06:57:34;;;;;;;4.90;3.00;;;22.50;61.70;23.40;100206.00;;;;5067494;28;20262;-41
2022/09/13 07:00:01;;;;;;;5.70;3.03;;;22.50;61.60;23.30;100200.00;;;;5065671;28;20672;-41
2022/09/13 07:02:27;;;;;;;7.87;3.20;;;22.50;61.60;23.30;100196.00;;;;5067597;28;20336;-43
2022/09/13 07:04:55;;;;;;;6.90;2.93;;;22.50;61.60;23.30;100197.00;;;;5067549;28;20514;-41
2022/09/13 07:07:21;;;;;;;7.77;3.23;;;22.40;61.50;23.30;100195.00;;;;4944069;28;20173;-42
2022/09/13 07:09:54;;;;;;;8.60;3.57;;;22.40;61.50;23.30;100195.00;;;;5087185;28;20188;-41
2022/09/13 07:12:25;;;;;;;3.73;3.00;;;22.40;61.50;23.30;100185.00;;;;5057999;28;20213;-42
2022/09/13 07:14:52;;;;;;;5.00;3.10;;;22.40;61.70;23.30;100183.00;;;;5067386;28;20997;-41
2022/09/13 07:17:18;;;;;;;7.43;3.43;;;22.40;61.60;23.30;100185.00;;;;5065859;28;20169;-41
2022/09/13 07:19:44;;;;;;;8.93;3.10;;;22.40;61.60;23.30;100191.00;;;;5066859;28;20162;-41
2022/09/13 07:22:09;;;;;;;4.60;3.00;;;22.40;61.60;23.30;100198.00;;;;5067058;28;20192;-41
2022/09/13 07:24:35;;;;;;;7.60;3.20;;;22.40;61.70;23.30;100191.00;;;;5067393;28;20169;-41
2022/09/13 07:27:01;;;;;;;5.60;3.30;;;22.40;61.60;23.30;100204.00;;;;5066777;28;20177;-42
2022/09/13 07:29:26;;;;;;;5.57;3.10;;;22.40;61.60;23.30;100195.00;;;;5066737;28;20166;-41
2022/09/13 07:31:53;;;;;;;3.73;3.00;;;22.40;61.50;23.30;100190.00;;;;5066442;28;20409;-40
2022/09/13 07:34:23;;;;;;;5.57;3.00;;;22.40;61.50;23.30;100186.00;;;;5067118;28;20536;-41
2022/09/13 07:36:49;;;;;;;3.53;2.90;;;22.40;61.50;23.30;100194.00;;;;5066616;28;20554;-40
2022/09/13 07:39:16;;;;;;;4.90;2.90;;;22.40;61.50;23.30;100206.00;;;;5066179;28;20202;-41
2022/09/13 07:41:42;;;;;;;4.47;2.90;;;22.40;61.50;23.30;100199.00;;;;5066601;28;20538;-41
2022/09/13 07:44:09;;;;;;;4.27;3.00;;;22.40;61.60;23.30;100208.00;;;;5066851;28;20341;-42
2022/09/13 07:46:42;;;;;;;6.27;2.97;;;22.40;61.50;23.30;100206.00;;;;5067095;28;20170;-42
2022/09/13 07:49:09;;;;;;;3.00;2.70;;;22.30;61.40;23.30;100216.00;;;;5066388;28;20592;-41
2022/09/13 07:51:36;;;;;;;4.37;3.00;;;22.40;61.50;23.20;100212.00;;;;5066623;28;20288;-41
2022/09/13 07:54:04;;;;;;;5.40;2.97;;;22.30;61.40;23.30;100217.00;;;;5069493;28;20173;-41
2022/09/13 07:56:31;;;;;;;4.10;3.00;;;22.40;61.50;23.20;100218.00;;;;5067653;28;20169;-41
2022/09/13 07:58:59;;;;;;;5.33;3.40;;;22.30;61.50;23.20;100215.00;;;;5057296;28;20428;-41
2022/09/13 08:01:27;;;;;;;5.27;3.00;;;22.40;61.60;23.20;100224.00;;;;5067124;28;20236;-42
2022/09/13 08:03:54;;;;;;;3.43;2.73;;;22.40;61.50;23.20;100227.00;;;;5067180;28;20174;-41
2022/09/13 08:06:21;;;;;;;3.47;2.90;;;22.30;61.50;23.30;100226.00;;;;4944759;28;20165;-41
2022/09/13 08:08:47;;;;;;;5.03;3.20;;;22.30;61.40;23.30;100221.00;;;;5066727;28;20173;-41
2022/09/13 08:11:24;;;;;;;4.60;3.10;;;22.40;62.20;23.30;100222.00;;;;5067222;28;20558;-41
2022/09/13 08:13:51;;;;;;;4.30;3.10;;;22.40;61.90;23.30;100221.00;;;;5065508;28;20178;-43
2022/09/13 08:16:18;;;;;;;4.73;2.90;;;22.30;61.70;23.30;100223.00;;;;5067959;28;20261;-43
2022/09/13 08:18:48;;;;;;;5.17;3.40;;;22.30;61.70;23.30;100230.00;;;;5067304;28;20204;-43
2022/09/13 08:21:14;;;;;;;3.67;2.90;;;22.30;61.70;23.30;100231.00;;;;5067343;28;20289;-43
2022/09/13 08:23:40;;;;;;;4.80;3.00;;;22.40;61.80;23.30;100228.00;;;;5067466;28;20248;-42
2022/09/13 08:26:06;;;;;;;4.17;2.90;;;22.30;61.70;23.30;100228.00;;;;5068230;28;20256;-42
2022/09/13 08:28:33;;;;;;;4.67;3.00;;;22.30;61.60;23.30;100226.00;;;;5067233;28;20212;-43
2022/09/13 08:31:16;;;;;;;5.10;3.00;;;22.30;61.50;23.30;100222.00;;;;5067130;28;20631;-42
2022/09/13 08:33:44;;;;;;;3.07;2.77;;;22.40;61.70;23.30;100223.00;;;;5067645;28;20252;-42
2022/09/13 08:36:09;;;;;;;3.23;2.93;;;22.40;61.60;23.30;100222.00;;;;5067662;28;20173;-43
2022/09/13 08:38:35;;;;;;;3.63;2.90;;;22.40;61.70;23.30;100220.00;;;;5067605;28;20180;-42
2022/09/13 08:41:28;;;;;;;3.30;2.93;;;22.30;61.50;23.30;100222.00;;;;5075436;28;20197;-43
2022/09/13 08:43:58;;;;;;;4.50;2.97;;;22.40;61.70;23.30;100214.00;;;;5049273;28;20173;-42
2022/09/13 08:46:32;;;;;;;3.37;2.73;;;22.40;61.70;23.30;100227.00;;;;5050067;28;20188;-44
2022/09/13 08:49:04;;;;;;;2.90;2.70;;;22.30;61.50;23.30;100220.00;;;;5068396;28;20272;-41
2022/09/13 08:51:52;;;;;;;2.90;2.70;;;22.40;61.50;23.30;100218.00;;;;5089186;28;20251;-42
2022/09/13 08:54:18;;;;;;;3.33;2.70;;;22.40;61.50;23.30;100221.00;;;;5078927;28;20162;-41
2022/09/13 08:57:11;;;;;;;3.33;2.53;;;22.40;61.50;23.30;100219.00;;;;5070466;28;20239;-42
2022/09/13 08:59:57;;;;;;;3.17;2.87;;;22.40;61.60;23.30;100215.00;;;;5070096;28;20634;-41
2022/09/13 09:02:40;;;;;;;2.80;2.60;;;22.40;62.50;23.30;100215.00;;;;5071674;28;20186;-44
2022/09/13 09:05:19;;;;;;;2.80;2.60;;;22.40;61.70;23.30;100209.00;;;;5049622;28;20175;-43
2022/09/13 09:08:02;;;;;;;2.83;2.63;;;22.40;61.70;23.30;100212.00;;;;4951004;28;20187;-42
2022/09/13 09:11:02;;;;;;;3.67;2.77;;;22.40;61.70;23.30;100199.00;;;;5093716;28;20208;-42
2022/09/13 09:13:34;;;;;;;4.17;3.00;;;22.40;61.70;23.30;100209.00;;;;5052913;28;20650;-41
2022/09/13 09:16:38;;;;;;;2.90;2.70;;;22.40;61.70;23.30;100186.00;;;;5089475;28;20673;-42
2022/09/13 09:19:21;;;;;;;2.70;2.50;;;22.40;61.80;23.30;100219.00;;;;5077237;28;20168;-43
2022/09/13 09:21:48;;;;;;;2.90;2.70;;;22.40;61.80;23.30;100204.00;;;;5089759;28;20192;-42
2022/09/13 09:24:22;;;;;;;3.03;2.73;;;22.40;61.90;23.30;100221.00;;;;5073474;28;20240;-42
2022/09/13 09:26:49;;;;;;;2.83;2.63;;;22.40;61.80;23.30;100212.00;;;;5085250;28;20675;-42
2022/09/13 09:29:26;;;;;;;3.27;2.57;;;22.40;62.60;23.30;100206.00;;;;5070734;28;20182;-41
2022/09/13 09:32:31;;;;;;;3.87;2.63;;;22.40;61.90;23.30;100204.00;;;;5069480;28;20205;-42
2022/09/13 09:35:10;;;;;;;2.70;2.50;;;22.40;61.90;23.30;100194.00;;;;5070430;28;20174;-42
2022/09/13 09:37:36;;;;;;;2.77;2.53;;;22.40;62.10;23.30;100204.00;;;;5049931;28;20572;-43
2022/09/13 09:40:06;;;;;;;2.67;2.47;;;22.40;62.10;23.30;100202.00;;;;5049795;28;20209;-43
2022/09/13 09:42:42;;;;;;;2.70;2.40;;;22.40;62.20;23.30;100204.00;;;;5033601;28;20579;-43
2022/09/13 09:45:37;;;;;;;2.70;2.50;;;22.40;62.30;23.30;100195.00;;;;5033666;28;20162;-43
2022/09/13 09:48:08;;;;;;;2.83;2.50;;;22.40;62.50;23.30;100194.00;;;;5048946;28;20671;-42
2022/09/13 09:50:42;;;;;;;2.53;2.33;;;22.40;62.60;23.30;100195.00;;;;5049502;28;20205;-43
2022/09/13 09:53:34;;;;;;;2.70;2.50;;;22.40;62.50;23.30;100188.00;;;;5049765;28;20154;-42
2022/09/13 09:56:22;;;;;;;2.87;2.57;;;22.40;62.60;23.30;100199.00;;;;5049761;28;20232;-43
2022/09/13 09:58:48;;;;;;;3.93;2.80;;;22.40;62.80;23.30;100206.00;;;;5050486;28;20151;-42
2022/09/13 10:01:28;;;;;;;2.50;2.30;;;22.40;62.60;23.40;100204.00;;;;5047701;28;20198;-42
2022/09/13 10:04:07;;;;;;;3.07;2.40;;;22.50;62.80;23.40;100204.00;;;;5055937;28;20197;-41
2022/09/13 10:06:33;;;;;;;2.70;2.50;;;22.40;62.70;23.40;100198.00;;;;4957655;28;20176;-43
2022/09/13 10:09:04;;;;;;;2.73;2.30;;;22.50;63.50;23.40;100174.00;;;;5071947;28;20643;-43
2022/09/13 10:11:48;;;;;;;2.70;2.50;;;22.50;62.90;23.40;100200.00;;;;5073397;28;20578;-42
2022/09/13 10:14:35;;;;;;;2.40;2.20;;;22.50;63.00;23.40;100194.00;;;;5090823;28;20162;-42
2022/09/13 10:17:26;;;;;;;2.60;2.40;;;22.50;63.00;23.50;100193.00;;;;5090111;28;20179;-41
2022/09/13 10:20:13;;;;;;;2.70;2.50;;;22.50;63.10;23.50;100186.00;;;;5089380;28;20169;-41
2022/09/13 10:22:41;;;;;;;2.60;2.40;;;22.50;63.20;23.50;100189.00;;;;5069507;28;20299;-42
2022/09/13 10:25:20;;;;;;;2.73;2.50;;;22.50;63.30;23.50;100185.00;;;;5070896;28;20525;-42
2022/09/13 10:27:54;;;;;;;2.50;2.30;;;22.60;63.50;23.50;100191.00;;;;5070434;28;20185;-42
2022/09/13 10:30:43;;;;;;;2.53;2.20;;;22.60;63.60;23.50;100196.00;;;;5051488;28;20314;-42
2022/09/13 10:33:37;;;;;;;2.60;2.40;;;22.60;63.80;23.50;100185.00;;;;5058002;28;20244;-43
2022/09/13 10:36:20;;;;;;;2.67;2.47;;;22.60;63.90;23.50;100185.00;;;;5089274;28;20396;-43
2022/09/13 10:39:16;;;;;;;2.87;2.40;;;22.60;64.00;23.50;100179.00;;;;5075437;28;20256;-42
2022/09/13 10:41:48;;;;;;;2.60;2.40;;;22.60;64.10;23.50;100183.00;;;;5104633;28;20200;-41
2022/09/13 10:44:45;;;;;;;2.50;2.30;;;22.60;64.30;23.60;100179.00;;;;5072576;28;20238;-42
2022/09/13 10:47:21;;;;;;;2.50;2.30;;;22.60;64.30;23.60;100173.00;;;;5089089;28;20183;-42
2022/09/13 10:49:52;;;;;;;3.30;2.40;;;22.70;64.60;23.60;100169.00;;;;5090062;28;20210;-41
2022/09/13 10:52:31;;;;;;;2.70;2.50;;;22.70;64.80;23.60;100177.00;;;;5089380;28;20243;-42
2022/09/13 10:55:17;;;;;;;2.50;2.30;;;22.70;64.80;23.60;100169.00;;;;5089621;28;20176;-42
2022/09/13 10:57:45;;;;;;;2.40;2.20;;;22.70;64.70;23.60;100166.00;;;;5077383;28;20181;-42
2022/09/13 11:00:20;;;;;;;2.43;2.23;;;22.70;65.00;23.60;100172.00;;;;5069366;28;20161;-42
2022/09/13 11:03:12;;;;;;;2.30;2.10;;;22.70;64.90;23.70;100175.00;;;;5067665;28;20534;-42
2022/09/13 11:05:46;;;;;;;2.50;2.30;;;22.80;65.20;23.70;100172.00;;;;4943268;28;20160;-43
2022/09/13 11:08:14;;;;;;;2.27;2.07;;;22.80;65.20;23.70;100165.00;;;;5071965;28;20166;-42
2022/09/13 11:11:04;;;;;;;2.20;2.10;;;22.90;65.30;23.70;100171.00;;;;5072201;28;20211;-42
2022/09/13 11:13:35;;;;;;;2.50;2.30;;;22.80;65.20;23.70;100166.00;;;;5073102;28;20202;-42
2022/09/13 11:16:46;;;;;;;2.67;2.20;;;22.90;65.30;23.80;100165.00;;;;5067322;28;20178;-42